sensor_id;sensor_type;location;lat;lon;timestamp;P1;durP1;ratioP1;P2;durP2;ratioP2
17310;SDS011;8773;43.300;0.394;2023-11-18T00:01:38;10.73;;;9.67;;
17310;SDS011;8773;43.300;0.394;2023-11-18T00:04:06;10.17;;;9.17;;
17310;SDS011;8773;43.300;0.394;2023-11-18T00:06:33;10.33;;;9.43;;
17310;SDS011;8773;43.300;0.394;2023-11-18T00:09:02;10.43;;;9.50;;
17310;SDS011;8773;43.300;0.394;2023-11-18T00:11:29;9.87;;;8.80;;
17310;SDS011;8773;43.300;0.394;2023-11-18T00:13:56;10.73;;;9.63;;
17310;SDS011;8773;43.300;0.394;2023-11-18T00:16:24;11.03;;;8.87;;
17310;SDS011;8773;43.300;0.394;2023-11-18T00:18:51;11.23;;;9.13;;
17310;SDS011;8773;43.300;0.394;2023-11-18T00:21:18;9.90;;;9.00;;
17310;SDS011;8773;43.300;0.394;2023-11-18T00:23:46;9.37;;;7.83;;
17310;SDS011;8773;43.300;0.394;2023-11-18T00:26:15;9.23;;;8.33;;
17310;SDS011;8773;43.300;0.394;2023-11-18T00:28:42;9.80;;;8.93;;
17310;SDS011;8773;43.300;0.394;2023-11-18T00:31:09;9.57;;;8.57;;
17310;SDS011;8773;43.300;0.394;2023-11-18T00:33:37;8.60;;;7.80;;
17310;SDS011;8773;43.300;0.394;2023-11-18T00:36:05;11.03;;;8.10;;
17310;SDS011;8773;43.300;0.394;2023-11-18T00:38:33;9.30;;;8.30;;
17310;SDS011;8773;43.300;0.394;2023-11-18T00:41:00;10.90;;;7.87;;
17310;SDS011;8773;43.300;0.394;2023-11-18T00:43:29;8.30;;;7.53;;
17310;SDS011;8773;43.300;0.394;2023-11-18T00:45:56;8.87;;;7.97;;
17310;SDS011;8773;43.300;0.394;2023-11-18T00:48:23;9.20;;;8.30;;
17310;SDS011;8773;43.300;0.394;2023-11-18T00:50:51;8.97;;;7.83;;
17310;SDS011;8773;43.300;0.394;2023-11-18T00:53:18;9.60;;;8.70;;
17310;SDS011;8773;43.300;0.394;2023-11-18T00:55:45;9.00;;;8.00;;
17310;SDS011;8773;43.300;0.394;2023-11-18T00:58:13;8.90;;;8.00;;
17310;SDS011;8773;43.300;0.394;2023-11-18T01:00:41;9.03;;;8.17;;
17310;SDS011;8773;43.300;0.394;2023-11-18T01:03:09;9.30;;;8.17;;
17310;SDS011;8773;43.300;0.394;2023-11-18T01:05:36;8.27;;;7.57;;
17310;SDS011;8773;43.300;0.394;2023-11-18T01:08:04;8.40;;;7.60;;
17310;SDS011;8773;43.300;0.394;2023-11-18T01:10:31;9.67;;;7.40;;
17310;SDS011;8773;43.300;0.394;2023-11-18T01:12:59;8.43;;;7.63;;
17310;SDS011;8773;43.300;0.394;2023-11-18T01:15:26;8.63;;;7.33;;
17310;SDS011;8773;43.300;0.394;2023-11-18T01:17:54;8.23;;;7.33;;
17310;SDS011;8773;43.300;0.394;2023-11-18T01:20:22;8.30;;;7.50;;
17310;SDS011;8773;43.300;0.394;2023-11-18T01:22:49;7.93;;;7.13;;
17310;SDS011;8773;43.300;0.394;2023-11-18T01:25:17;7.83;;;7.13;;
17310;SDS011;8773;43.300;0.394;2023-11-18T01:27:44;7.50;;;6.70;;
17310;SDS011;8773;43.300;0.394;2023-11-18T01:30:12;7.63;;;7.03;;
17310;SDS011;8773;43.300;0.394;2023-11-18T01:32:40;7.57;;;6.60;;
17310;SDS011;8773;43.300;0.394;2023-11-18T01:35:09;7.77;;;7.07;;
17310;SDS011;8773;43.300;0.394;2023-11-18T01:37:37;7.63;;;6.83;;
17310;SDS011;8773;43.300;0.394;2023-11-18T01:40:05;8.70;;;6.60;;
17310;SDS011;8773;43.300;0.394;2023-11-18T01:42:33;6.93;;;6.27;;
17310;SDS011;8773;43.300;0.394;2023-11-18T01:45:00;6.93;;;6.30;;
17310;SDS011;8773;43.300;0.394;2023-11-18T01:47:28;7.60;;;6.87;;
17310;SDS011;8773;43.300;0.394;2023-11-18T01:49:55;7.20;;;6.50;;
17310;SDS011;8773;43.300;0.394;2023-11-18T01:52:24;7.70;;;6.93;;
17310;SDS011;8773;43.300;0.394;2023-11-18T01:54:51;7.33;;;6.53;;
17310;SDS011;8773;43.300;0.394;2023-11-18T01:57:21;7.93;;;7.13;;
17310;SDS011;8773;43.300;0.394;2023-11-18T01:59:48;8.10;;;6.30;;
17310;SDS011;8773;43.300;0.394;2023-11-18T02:02:16;7.30;;;6.80;;
17310;SDS011;8773;43.300;0.394;2023-11-18T02:04:43;6.97;;;6.37;;
17310;SDS011;8773;43.300;0.394;2023-11-18T02:07:11;6.83;;;6.23;;
17310;SDS011;8773;43.300;0.394;2023-11-18T02:09:39;7.47;;;6.73;;
17310;SDS011;8773;43.300;0.394;2023-11-18T02:12:09;6.90;;;6.30;;
17310;SDS011;8773;43.300;0.394;2023-11-18T02:14:45;7.20;;;6.60;;
17310;SDS011;8773;43.300;0.394;2023-11-18T02:17:14;8.13;;;6.30;;
17310;SDS011;8773;43.300;0.394;2023-11-18T02:19:46;7.07;;;6.47;;
17310;SDS011;8773;43.300;0.394;2023-11-18T02:22:14;6.60;;;6.07;;
17310;SDS011;8773;43.300;0.394;2023-11-18T02:24:44;6.77;;;6.13;;
17310;SDS011;8773;43.300;0.394;2023-11-18T02:27:12;7.57;;;5.90;;
17310;SDS011;8773;43.300;0.394;2023-11-18T02:29:40;6.97;;;5.83;;
17310;SDS011;8773;43.300;0.394;2023-11-18T02:32:11;8.23;;;6.00;;
17310;SDS011;8773;43.300;0.394;2023-11-18T02:34:45;6.80;;;6.20;;
17310;SDS011;8773;43.300;0.394;2023-11-18T02:37:17;5.87;;;5.47;;
17310;SDS011;8773;43.300;0.394;2023-11-18T02:39:45;6.80;;;6.20;;
17310;SDS011;8773;43.300;0.394;2023-11-18T02:42:20;7.83;;;5.83;;
17310;SDS011;8773;43.300;0.394;2023-11-18T02:44:49;6.90;;;6.30;;
17310;SDS011;8773;43.300;0.394;2023-11-18T02:47:17;6.33;;;5.80;;
17310;SDS011;8773;43.300;0.394;2023-11-18T02:49:45;6.47;;;5.70;;
17310;SDS011;8773;43.300;0.394;2023-11-18T02:52:12;6.23;;;5.73;;
17310;SDS011;8773;43.300;0.394;2023-11-18T02:54:39;7.07;;;5.80;;
17310;SDS011;8773;43.300;0.394;2023-11-18T02:57:06;7.07;;;5.70;;
17310;SDS011;8773;43.300;0.394;2023-11-18T02:59:35;5.60;;;5.10;;
17310;SDS011;8773;43.300;0.394;2023-11-18T03:02:03;5.43;;;4.93;;
17310;SDS011;8773;43.300;0.394;2023-11-18T03:04:30;6.07;;;5.07;;
17310;SDS011;8773;43.300;0.394;2023-11-18T03:06:58;5.50;;;5.10;;
17310;SDS011;8773;43.300;0.394;2023-11-18T03:09:25;5.53;;;4.90;;
17310;SDS011;8773;43.300;0.394;2023-11-18T03:11:52;5.67;;;5.17;;
17310;SDS011;8773;43.300;0.394;2023-11-18T03:14:20;5.40;;;5.00;;
17310;SDS011;8773;43.300;0.394;2023-11-18T03:16:48;5.80;;;5.30;;
17310;SDS011;8773;43.300;0.394;2023-11-18T03:19:16;5.20;;;4.83;;
17310;SDS011;8773;43.300;0.394;2023-11-18T03:21:43;5.30;;;5.00;;
17310;SDS011;8773;43.300;0.394;2023-11-18T03:24:11;5.40;;;4.83;;
17310;SDS011;8773;43.300;0.394;2023-11-18T03:26:38;4.90;;;4.60;;
17310;SDS011;8773;43.300;0.394;2023-11-18T03:29:05;5.73;;;5.10;;
17310;SDS011;8773;43.300;0.394;2023-11-18T03:31:33;5.10;;;4.80;;
17310;SDS011;8773;43.300;0.394;2023-11-18T03:34:01;5.23;;;4.73;;
17310;SDS011;8773;43.300;0.394;2023-11-18T03:36:29;5.20;;;4.70;;
17310;SDS011;8773;43.300;0.394;2023-11-18T03:38:56;5.50;;;5.00;;
17310;SDS011;8773;43.300;0.394;2023-11-18T03:41:24;4.80;;;4.50;;
17310;SDS011;8773;43.300;0.394;2023-11-18T03:43:51;5.40;;;4.57;;
17310;SDS011;8773;43.300;0.394;2023-11-18T03:46:18;5.90;;;4.93;;
17310;SDS011;8773;43.300;0.394;2023-11-18T03:48:46;5.07;;;4.67;;
17310;SDS011;8773;43.300;0.394;2023-11-18T03:51:14;4.63;;;4.33;;
17310;SDS011;8773;43.300;0.394;2023-11-18T03:53:42;5.10;;;4.70;;
17310;SDS011;8773;43.300;0.394;2023-11-18T03:56:09;5.27;;;4.77;;
17310;SDS011;8773;43.300;0.394;2023-11-18T03:58:36;5.67;;;5.13;;
17310;SDS011;8773;43.300;0.394;2023-11-18T04:01:04;5.00;;;4.60;;
17310;SDS011;8773;43.300;0.394;2023-11-18T04:03:32;4.83;;;4.43;;
17310;SDS011;8773;43.300;0.394;2023-11-18T04:05:59;4.80;;;4.50;;
17310;SDS011;8773;43.300;0.394;2023-11-18T04:08:28;5.13;;;4.63;;
17310;SDS011;8773;43.300;0.394;2023-11-18T04:10:55;4.80;;;4.20;;
17310;SDS011;8773;43.300;0.394;2023-11-18T04:13:23;4.97;;;4.30;;
17310;SDS011;8773;43.300;0.394;2023-11-18T04:15:50;4.67;;;4.27;;
17310;SDS011;8773;43.300;0.394;2023-11-18T04:18:17;5.40;;;4.97;;
17310;SDS011;8773;43.300;0.394;2023-11-18T04:20:45;4.83;;;4.43;;
17310;SDS011;8773;43.300;0.394;2023-11-18T04:23:15;4.77;;;4.37;;
17310;SDS011;8773;43.300;0.394;2023-11-18T04:25:44;6.20;;;4.67;;
17310;SDS011;8773;43.300;0.394;2023-11-18T04:28:12;4.77;;;4.37;;
17310;SDS011;8773;43.300;0.394;2023-11-18T04:30:39;4.53;;;4.10;;
17310;SDS011;8773;43.300;0.394;2023-11-18T04:33:06;5.30;;;4.90;;
17310;SDS011;8773;43.300;0.394;2023-11-18T04:35:34;4.73;;;4.13;;
17310;SDS011;8773;43.300;0.394;2023-11-18T04:38:01;4.67;;;4.20;;
17310;SDS011;8773;43.300;0.394;2023-11-18T04:40:28;4.57;;;4.27;;
17310;SDS011;8773;43.300;0.394;2023-11-18T04:42:57;4.90;;;4.00;;
17310;SDS011;8773;43.300;0.394;2023-11-18T04:45:24;4.93;;;4.20;;
17310;SDS011;8773;43.300;0.394;2023-11-18T04:47:52;4.83;;;4.33;;
17310;SDS011;8773;43.300;0.394;2023-11-18T04:50:19;4.40;;;4.00;;
17310;SDS011;8773;43.300;0.394;2023-11-18T04:52:46;4.13;;;3.77;;
17310;SDS011;8773;43.300;0.394;2023-11-18T04:55:14;4.13;;;3.80;;
17310;SDS011;8773;43.300;0.394;2023-11-18T04:57:41;4.43;;;4.13;;
17310;SDS011;8773;43.300;0.394;2023-11-18T05:00:11;4.13;;;3.77;;
17310;SDS011;8773;43.300;0.394;2023-11-18T05:02:39;4.90;;;4.50;;
17310;SDS011;8773;43.300;0.394;2023-11-18T05:05:07;5.30;;;4.53;;
17310;SDS011;8773;43.300;0.394;2023-11-18T05:07:35;4.53;;;4.13;;
17310;SDS011;8773;43.300;0.394;2023-11-18T05:10:02;3.97;;;3.67;;
17310;SDS011;8773;43.300;0.394;2023-11-18T05:12:30;4.30;;;3.30;;
17310;SDS011;8773;43.300;0.394;2023-11-18T05:14:59;4.27;;;3.83;;
17310;SDS011;8773;43.300;0.394;2023-11-18T05:17:28;4.53;;;3.43;;
17310;SDS011;8773;43.300;0.394;2023-11-18T05:19:55;4.37;;;3.20;;
17310;SDS011;8773;43.300;0.394;2023-11-18T05:22:23;4.27;;;3.50;;
17310;SDS011;8773;43.300;0.394;2023-11-18T05:24:50;4.33;;;3.43;;
17310;SDS011;8773;43.300;0.394;2023-11-18T05:27:17;3.97;;;3.57;;
17310;SDS011;8773;43.300;0.394;2023-11-18T05:29:44;3.70;;;3.50;;
17310;SDS011;8773;43.300;0.394;2023-11-18T05:32:12;3.73;;;3.43;;
17310;SDS011;8773;43.300;0.394;2023-11-18T05:34:40;3.67;;;3.23;;
17310;SDS011;8773;43.300;0.394;2023-11-18T05:37:08;3.30;;;3.07;;
17310;SDS011;8773;43.300;0.394;2023-11-18T05:39:35;4.27;;;3.60;;
17310;SDS011;8773;43.300;0.394;2023-11-18T05:42:03;3.50;;;3.30;;
17310;SDS011;8773;43.300;0.394;2023-11-18T05:44:30;3.43;;;3.13;;
17310;SDS011;8773;43.300;0.394;2023-11-18T05:46:57;3.40;;;3.10;;
17310;SDS011;8773;43.300;0.394;2023-11-18T05:49:25;3.30;;;3.10;;
17310;SDS011;8773;43.300;0.394;2023-11-18T05:51:57;3.20;;;3.00;;
17310;SDS011;8773;43.300;0.394;2023-11-18T05:54:24;3.63;;;3.43;;
17310;SDS011;8773;43.300;0.394;2023-11-18T05:56:51;3.70;;;3.50;;
17310;SDS011;8773;43.300;0.394;2023-11-18T05:59:19;3.70;;;3.40;;
17310;SDS011;8773;43.300;0.394;2023-11-18T06:01:46;3.17;;;2.97;;
17310;SDS011;8773;43.300;0.394;2023-11-18T06:04:13;5.10;;;3.07;;
17310;SDS011;8773;43.300;0.394;2023-11-18T06:06:41;2.90;;;2.70;;
17310;SDS011;8773;43.300;0.394;2023-11-18T06:09:10;3.53;;;2.90;;
17310;SDS011;8773;43.300;0.394;2023-11-18T06:11:38;2.83;;;2.60;;
17310;SDS011;8773;43.300;0.394;2023-11-18T06:14:05;3.37;;;2.70;;
17310;SDS011;8773;43.300;0.394;2023-11-18T06:16:32;3.40;;;2.80;;
17310;SDS011;8773;43.300;0.394;2023-11-18T06:19:00;4.13;;;2.83;;
17310;SDS011;8773;43.300;0.394;2023-11-18T06:21:27;4.03;;;2.90;;
17310;SDS011;8773;43.300;0.394;2023-11-18T06:23:54;3.43;;;3.10;;
17310;SDS011;8773;43.300;0.394;2023-11-18T06:26:24;2.70;;;2.50;;
17310;SDS011;8773;43.300;0.394;2023-11-18T06:28:52;3.07;;;2.83;;
17310;SDS011;8773;43.300;0.394;2023-11-18T06:31:20;3.00;;;2.80;;
17310;SDS011;8773;43.300;0.394;2023-11-18T06:33:48;3.00;;;2.80;;
17310;SDS011;8773;43.300;0.394;2023-11-18T06:36:18;3.10;;;2.80;;
17310;SDS011;8773;43.300;0.394;2023-11-18T06:38:46;3.20;;;2.67;;
17310;SDS011;8773;43.300;0.394;2023-11-18T06:41:14;2.83;;;2.63;;
17310;SDS011;8773;43.300;0.394;2023-11-18T06:43:43;2.90;;;2.70;;
17310;SDS011;8773;43.300;0.394;2023-11-18T06:46:11;3.00;;;2.73;;
17310;SDS011;8773;43.300;0.394;2023-11-18T06:48:40;2.83;;;2.67;;
17310;SDS011;8773;43.300;0.394;2023-11-18T06:51:07;2.77;;;2.67;;
17310;SDS011;8773;43.300;0.394;2023-11-18T06:53:37;2.80;;;2.60;;
17310;SDS011;8773;43.300;0.394;2023-11-18T06:56:06;2.80;;;2.50;;
17310;SDS011;8773;43.300;0.394;2023-11-18T06:58:34;3.67;;;2.70;;
17310;SDS011;8773;43.300;0.394;2023-11-18T07:01:05;3.20;;;2.97;;
17310;SDS011;8773;43.300;0.394;2023-11-18T07:03:32;2.53;;;2.33;;
17310;SDS011;8773;43.300;0.394;2023-11-18T07:06:00;2.80;;;2.60;;
17310;SDS011;8773;43.300;0.394;2023-11-18T07:08:27;2.83;;;2.60;;
17310;SDS011;8773;43.300;0.394;2023-11-18T07:10:55;3.00;;;2.70;;
17310;SDS011;8773;43.300;0.394;2023-11-18T07:13:22;2.63;;;2.43;;
17310;SDS011;8773;43.300;0.394;2023-11-18T07:15:49;3.27;;;2.30;;
17310;SDS011;8773;43.300;0.394;2023-11-18T07:18:18;3.03;;;2.57;;
17310;SDS011;8773;43.300;0.394;2023-11-18T07:20:46;2.30;;;2.10;;
17310;SDS011;8773;43.300;0.394;2023-11-18T07:23:13;2.67;;;2.47;;
17310;SDS011;8773;43.300;0.394;2023-11-18T07:25:40;2.37;;;2.00;;
17310;SDS011;8773;43.300;0.394;2023-11-18T07:28:08;2.60;;;2.10;;
17310;SDS011;8773;43.300;0.394;2023-11-18T07:30:35;2.43;;;2.23;;
17310;SDS011;8773;43.300;0.394;2023-11-18T07:33:02;2.63;;;2.10;;
17310;SDS011;8773;43.300;0.394;2023-11-18T07:35:31;2.20;;;2.00;;
17310;SDS011;8773;43.300;0.394;2023-11-18T07:37:58;2.40;;;2.20;;
17310;SDS011;8773;43.300;0.394;2023-11-18T07:40:26;2.13;;;2.03;;
17310;SDS011;8773;43.300;0.394;2023-11-18T07:42:53;3.53;;;2.03;;
17310;SDS011;8773;43.300;0.394;2023-11-18T07:45:21;1.90;;;1.80;;
17310;SDS011;8773;43.300;0.394;2023-11-18T07:47:48;1.80;;;1.70;;
17310;SDS011;8773;43.300;0.394;2023-11-18T07:50:16;2.33;;;2.20;;
17310;SDS011;8773;43.300;0.394;2023-11-18T07:52:45;3.63;;;2.00;;
17310;SDS011;8773;43.300;0.394;2023-11-18T07:55:13;1.80;;;1.70;;
17310;SDS011;8773;43.300;0.394;2023-11-18T07:57:40;2.17;;;1.90;;
17310;SDS011;8773;43.300;0.394;2023-11-18T08:00:08;2.00;;;1.90;;
17310;SDS011;8773;43.300;0.394;2023-11-18T08:02:36;2.00;;;1.90;;
17310;SDS011;8773;43.300;0.394;2023-11-18T08:05:04;2.73;;;1.90;;
17310;SDS011;8773;43.300;0.394;2023-11-18T08:07:31;2.33;;;2.10;;
17310;SDS011;8773;43.300;0.394;2023-11-18T08:10:00;2.30;;;1.90;;
17310;SDS011;8773;43.300;0.394;2023-11-18T08:12:31;2.10;;;2.00;;
17310;SDS011;8773;43.300;0.394;2023-11-18T08:15:02;4.03;;;2.00;;
17310;SDS011;8773;43.300;0.394;2023-11-18T08:17:30;2.03;;;1.83;;
17310;SDS011;8773;43.300;0.394;2023-11-18T08:19:57;2.47;;;2.27;;
17310;SDS011;8773;43.300;0.394;2023-11-18T08:22:25;2.63;;;2.43;;
17310;SDS011;8773;43.300;0.394;2023-11-18T08:24:52;2.57;;;2.47;;
17310;SDS011;8773;43.300;0.394;2023-11-18T08:27:21;1.90;;;1.80;;
17310;SDS011;8773;43.300;0.394;2023-11-18T08:29:48;2.37;;;2.20;;
17310;SDS011;8773;43.300;0.394;2023-11-18T08:32:15;2.23;;;2.03;;
17310;SDS011;8773;43.300;0.394;2023-11-18T08:34:43;1.80;;;1.70;;
17310;SDS011;8773;43.300;0.394;2023-11-18T08:37:10;2.37;;;1.93;;
17310;SDS011;8773;43.300;0.394;2023-11-18T08:39:39;1.97;;;1.87;;
17310;SDS011;8773;43.300;0.394;2023-11-18T08:42:06;2.83;;;2.00;;
17310;SDS011;8773;43.300;0.394;2023-11-18T08:44:35;2.50;;;2.30;;
17310;SDS011;8773;43.300;0.394;2023-11-18T08:47:03;2.60;;;2.40;;
17310;SDS011;8773;43.300;0.394;2023-11-18T08:49:31;2.30;;;2.10;;
17310;SDS011;8773;43.300;0.394;2023-11-18T08:51:58;2.17;;;2.07;;
17310;SDS011;8773;43.300;0.394;2023-11-18T08:54:25;2.20;;;1.73;;
17310;SDS011;8773;43.300;0.394;2023-11-18T08:56:52;2.00;;;1.80;;
17310;SDS011;8773;43.300;0.394;2023-11-18T08:59:20;2.00;;;1.90;;
17310;SDS011;8773;43.300;0.394;2023-11-18T09:01:49;2.33;;;1.80;;
17310;SDS011;8773;43.300;0.394;2023-11-18T09:04:17;2.63;;;1.57;;
17310;SDS011;8773;43.300;0.394;2023-11-18T09:06:45;1.97;;;1.67;;
17310;SDS011;8773;43.300;0.394;2023-11-18T09:09:12;4.40;;;1.90;;
17310;SDS011;8773;43.300;0.394;2023-11-18T09:11:39;2.00;;;1.80;;
17310;SDS011;8773;43.300;0.394;2023-11-18T09:14:07;1.70;;;1.60;;
17310;SDS011;8773;43.300;0.394;2023-11-18T09:16:34;1.70;;;1.60;;
17310;SDS011;8773;43.300;0.394;2023-11-18T09:19:03;1.67;;;1.60;;
17310;SDS011;8773;43.300;0.394;2023-11-18T09:21:30;1.90;;;1.80;;
17310;SDS011;8773;43.300;0.394;2023-11-18T09:23:58;1.90;;;1.70;;
17310;SDS011;8773;43.300;0.394;2023-11-18T09:26:25;2.53;;;1.53;;
17310;SDS011;8773;43.300;0.394;2023-11-18T09:28:53;2.00;;;1.90;;
17310;SDS011;8773;43.300;0.394;2023-11-18T09:31:21;2.27;;;2.10;;
17310;SDS011;8773;43.300;0.394;2023-11-18T09:33:49;2.10;;;1.90;;
17310;SDS011;8773;43.300;0.394;2023-11-18T09:36:18;1.80;;;1.70;;
17310;SDS011;8773;43.300;0.394;2023-11-18T09:38:46;2.07;;;1.97;;
17310;SDS011;8773;43.300;0.394;2023-11-18T09:41:15;1.93;;;1.83;;
17310;SDS011;8773;43.300;0.394;2023-11-18T09:43:43;1.90;;;1.80;;
17310;SDS011;8773;43.300;0.394;2023-11-18T09:46:12;1.57;;;1.50;;
17310;SDS011;8773;43.300;0.394;2023-11-18T09:48:42;3.37;;;1.53;;
17310;SDS011;8773;43.300;0.394;2023-11-18T09:51:10;2.73;;;1.80;;
17310;SDS011;8773;43.300;0.394;2023-11-18T09:53:43;1.70;;;1.60;;
17310;SDS011;8773;43.300;0.394;2023-11-18T09:56:13;1.77;;;1.53;;
17310;SDS011;8773;43.300;0.394;2023-11-18T09:58:48;2.40;;;1.70;;
17310;SDS011;8773;43.300;0.394;2023-11-18T10:01:28;1.83;;;1.40;;
17310;SDS011;8773;43.300;0.394;2023-11-18T10:03:57;2.03;;;1.73;;
17310;SDS011;8773;43.300;0.394;2023-11-18T10:06:25;3.03;;;1.80;;
17310;SDS011;8773;43.300;0.394;2023-11-18T10:08:54;2.00;;;1.80;;
17310;SDS011;8773;43.300;0.394;2023-11-18T10:11:22;1.57;;;1.47;;
17310;SDS011;8773;43.300;0.394;2023-11-18T10:13:49;2.23;;;1.87;;
17310;SDS011;8773;43.300;0.394;2023-11-18T10:16:16;1.80;;;1.70;;
17310;SDS011;8773;43.300;0.394;2023-11-18T10:18:44;1.80;;;1.70;;
17310;SDS011;8773;43.300;0.394;2023-11-18T10:21:12;1.93;;;1.83;;
17310;SDS011;8773;43.300;0.394;2023-11-18T10:23:39;2.87;;;1.70;;
17310;SDS011;8773;43.300;0.394;2023-11-18T10:26:27;4.33;;;2.07;;
17310;SDS011;8773;43.300;0.394;2023-11-18T10:28:54;2.03;;;1.70;;
17310;SDS011;8773;43.300;0.394;2023-11-18T10:31:29;1.77;;;1.57;;
17310;SDS011;8773;43.300;0.394;2023-11-18T10:33:56;1.70;;;1.60;;
17310;SDS011;8773;43.300;0.394;2023-11-18T10:36:25;3.17;;;1.87;;
17310;SDS011;8773;43.300;0.394;2023-11-18T10:38:53;2.37;;;1.73;;
17310;SDS011;8773;43.300;0.394;2023-11-18T10:41:22;2.07;;;1.77;;
17310;SDS011;8773;43.300;0.394;2023-11-18T10:43:49;2.70;;;1.60;;
17310;SDS011;8773;43.300;0.394;2023-11-18T10:46:32;2.90;;;1.60;;
17310;SDS011;8773;43.300;0.394;2023-11-18T10:48:59;1.40;;;1.30;;
17310;SDS011;8773;43.300;0.394;2023-11-18T10:51:27;1.43;;;1.27;;
17310;SDS011;8773;43.300;0.394;2023-11-18T10:53:55;1.43;;;1.33;;
17310;SDS011;8773;43.300;0.394;2023-11-18T10:56:24;1.80;;;1.40;;
17310;SDS011;8773;43.300;0.394;2023-11-18T10:58:52;1.50;;;1.40;;
17310;SDS011;8773;43.300;0.394;2023-11-18T11:01:29;1.40;;;1.40;;
17310;SDS011;8773;43.300;0.394;2023-11-18T11:03:56;2.10;;;1.90;;
17310;SDS011;8773;43.300;0.394;2023-11-18T11:06:26;2.67;;;1.80;;
17310;SDS011;8773;43.300;0.394;2023-11-18T11:08:54;1.60;;;1.50;;
17310;SDS011;8773;43.300;0.394;2023-11-18T11:11:21;1.90;;;1.70;;
17310;SDS011;8773;43.300;0.394;2023-11-18T11:13:51;1.47;;;1.40;;
17310;SDS011;8773;43.300;0.394;2023-11-18T11:16:26;1.43;;;1.43;;
17310;SDS011;8773;43.300;0.394;2023-11-18T11:19:01;1.47;;;1.47;;
17310;SDS011;8773;43.300;0.394;2023-11-18T11:21:31;1.73;;;1.60;;
17310;SDS011;8773;43.300;0.394;2023-11-18T11:24:04;1.90;;;1.70;;
17310;SDS011;8773;43.300;0.394;2023-11-18T11:26:40;1.80;;;1.60;;
17310;SDS011;8773;43.300;0.394;2023-11-18T11:29:22;2.37;;;1.60;;
17310;SDS011;8773;43.300;0.394;2023-11-18T11:31:59;1.40;;;1.40;;
17310;SDS011;8773;43.300;0.394;2023-11-18T11:34:36;1.80;;;1.70;;
17310;SDS011;8773;43.300;0.394;2023-11-18T11:37:07;2.00;;;1.90;;
17310;SDS011;8773;43.300;0.394;2023-11-18T11:39:35;1.98;;;1.77;;
17310;SDS011;8773;43.300;0.394;2023-11-18T11:42:04;1.83;;;1.73;;
17310;SDS011;8773;43.300;0.394;2023-11-18T11:44:33;3.03;;;1.90;;
17310;SDS011;8773;43.300;0.394;2023-11-18T11:47:00;2.13;;;2.03;;
17310;SDS011;8773;43.300;0.394;2023-11-18T11:49:31;2.95;;;1.80;;
17310;SDS011;8773;43.300;0.394;2023-11-18T11:52:04;2.13;;;1.88;;
17310;SDS011;8773;43.300;0.394;2023-11-18T11:54:46;2.45;;;2.25;;
17310;SDS011;8773;43.300;0.394;2023-11-18T11:57:21;2.47;;;2.17;;
17310;SDS011;8773;43.300;0.394;2023-11-18T11:59:56;2.53;;;2.28;;
17310;SDS011;8773;43.300;0.394;2023-11-18T12:02:25;2.40;;;2.30;;
17310;SDS011;8773;43.300;0.394;2023-11-18T12:04:53;2.42;;;2.28;;
17310;SDS011;8773;43.300;0.394;2023-11-18T12:07:22;2.40;;;2.30;;
17310;SDS011;8773;43.300;0.394;2023-11-18T12:09:50;2.97;;;2.30;;
17310;SDS011;8773;43.300;0.394;2023-11-18T12:12:17;2.60;;;2.50;;
17310;SDS011;8773;43.300;0.394;2023-11-18T12:14:54;2.45;;;2.35;;
17310;SDS011;8773;43.300;0.394;2023-11-18T12:17:24;3.67;;;2.65;;
17310;SDS011;8773;43.300;0.394;2023-11-18T12:19:51;2.30;;;2.20;;
17310;SDS011;8773;43.300;0.394;2023-11-18T12:22:19;2.50;;;2.30;;
17310;SDS011;8773;43.300;0.394;2023-11-18T12:27:56;2.90;;;2.70;;
17310;SDS011;8773;43.300;0.394;2023-11-18T12:30:40;2.58;;;2.38;;
17310;SDS011;8773;43.300;0.394;2023-11-18T12:33:08;2.65;;;2.42;;
17310;SDS011;8773;43.300;0.394;2023-11-18T12:35:39;2.25;;;2.10;;
17310;SDS011;8773;43.300;0.394;2023-11-18T12:38:26;2.80;;;1.80;;
17310;SDS011;8773;43.300;0.394;2023-11-18T12:41:04;2.45;;;2.25;;
17310;SDS011;8773;43.300;0.394;2023-11-18T12:43:42;2.30;;;2.10;;
17310;SDS011;8773;43.300;0.394;2023-11-18T12:49:18;4.30;;;2.47;;
17310;SDS011;8773;43.300;0.394;2023-11-18T12:51:46;2.33;;;2.17;;
17310;SDS011;8773;43.300;0.394;2023-11-18T12:54:14;3.28;;;2.25;;
17310;SDS011;8773;43.300;0.394;2023-11-18T12:56:43;3.13;;;2.28;;
17310;SDS011;8773;43.300;0.394;2023-11-18T12:59:11;2.53;;;2.33;;
17310;SDS011;8773;43.300;0.394;2023-11-18T13:01:38;4.80;;;2.35;;
17310;SDS011;8773;43.300;0.394;2023-11-18T13:04:07;2.63;;;2.38;;
17310;SDS011;8773;43.300;0.394;2023-11-18T13:06:35;2.92;;;2.50;;
17310;SDS011;8773;43.300;0.394;2023-11-18T13:09:03;3.17;;;2.85;;
17310;SDS011;8773;43.300;0.394;2023-11-18T13:11:30;2.15;;;2.05;;
17310;SDS011;8773;43.300;0.394;2023-11-18T13:13:58;3.75;;;2.47;;
17310;SDS011;8773;43.300;0.394;2023-11-18T13:16:25;1.90;;;1.80;;
17310;SDS011;8773;43.300;0.394;2023-11-18T13:18:52;2.17;;;1.85;;
17310;SDS011;8773;43.300;0.394;2023-11-18T13:21:21;1.83;;;1.73;;
17310;SDS011;8773;43.300;0.394;2023-11-18T13:23:49;2.45;;;1.65;;
17310;SDS011;8773;43.300;0.394;2023-11-18T13:26:19;1.75;;;1.65;;
17310;SDS011;8773;43.300;0.394;2023-11-18T13:28:47;1.50;;;1.45;;
17310;SDS011;8773;43.300;0.394;2023-11-18T13:31:14;2.00;;;1.40;;
17310;SDS011;8773;43.300;0.394;2023-11-18T13:33:42;1.38;;;1.30;;
17310;SDS011;8773;43.300;0.394;2023-11-18T13:36:10;1.95;;;1.33;;
17310;SDS011;8773;43.300;0.394;2023-11-18T13:38:39;1.42;;;1.30;;
17310;SDS011;8773;43.300;0.394;2023-11-18T13:41:07;1.25;;;1.10;;
17310;SDS011;8773;43.300;0.394;2023-11-18T13:43:41;1.00;;;1.00;;
17310;SDS011;8773;43.300;0.394;2023-11-18T13:46:12;1.13;;;1.10;;
17310;SDS011;8773;43.300;0.394;2023-11-18T13:48:39;1.27;;;1.27;;
17310;SDS011;8773;43.300;0.394;2023-11-18T13:51:08;1.40;;;1.30;;
17310;SDS011;8773;43.300;0.394;2023-11-18T13:53:39;1.52;;;1.42;;
17310;SDS011;8773;43.300;0.394;2023-11-18T13:56:07;1.70;;;1.60;;
17310;SDS011;8773;43.300;0.394;2023-11-18T13:58:35;1.75;;;1.65;;
17310;SDS011;8773;43.300;0.394;2023-11-18T14:01:02;1.50;;;1.50;;
17310;SDS011;8773;43.300;0.394;2023-11-18T14:03:32;1.67;;;1.27;;
17310;SDS011;8773;43.300;0.394;2023-11-18T14:05:59;2.03;;;1.92;;
17310;SDS011;8773;43.300;0.394;2023-11-18T14:08:26;1.83;;;1.73;;
17310;SDS011;8773;43.300;0.394;2023-11-18T14:10:55;3.47;;;2.00;;
17310;SDS011;8773;43.300;0.394;2023-11-18T14:13:30;2.65;;;2.00;;
17310;SDS011;8773;43.300;0.394;2023-11-18T14:15:57;2.30;;;2.20;;
17310;SDS011;8773;43.300;0.394;2023-11-18T14:18:25;2.72;;;2.50;;
17310;SDS011;8773;43.300;0.394;2023-11-18T14:20:52;2.60;;;2.40;;
17310;SDS011;8773;43.300;0.394;2023-11-18T14:23:20;2.90;;;2.67;;
17310;SDS011;8773;43.300;0.394;2023-11-18T14:25:47;2.30;;;2.20;;
17310;SDS011;8773;43.300;0.394;2023-11-18T14:28:16;2.33;;;2.13;;
17310;SDS011;8773;43.300;0.394;2023-11-18T14:30:43;2.40;;;2.28;;
17310;SDS011;8773;43.300;0.394;2023-11-18T14:33:11;2.95;;;2.75;;
17310;SDS011;8773;43.300;0.394;2023-11-18T14:35:38;2.70;;;1.65;;
17310;SDS011;8773;43.300;0.394;2023-11-18T14:38:05;1.30;;;1.20;;
17310;SDS011;8773;43.300;0.394;2023-11-18T14:40:33;1.42;;;1.38;;
17310;SDS011;8773;43.300;0.394;2023-11-18T14:43:00;2.08;;;1.58;;
17310;SDS011;8773;43.300;0.394;2023-11-18T14:45:29;1.50;;;1.40;;
17310;SDS011;8773;43.300;0.394;2023-11-18T14:47:56;2.17;;;1.58;;
17310;SDS011;8773;43.300;0.394;2023-11-18T14:50:24;0.90;;;0.90;;
17310;SDS011;8773;43.300;0.394;2023-11-18T14:52:51;0.90;;;0.90;;
17310;SDS011;8773;43.300;0.394;2023-11-18T14:55:19;1.25;;;1.20;;
17310;SDS011;8773;43.300;0.394;2023-11-18T14:57:46;1.35;;;1.30;;
17310;SDS011;8773;43.300;0.394;2023-11-18T15:00:14;1.70;;;1.60;;
17310;SDS011;8773;43.300;0.394;2023-11-18T15:02:43;2.20;;;2.05;;
17310;SDS011;8773;43.300;0.394;2023-11-18T15:05:10;2.28;;;2.17;;
17310;SDS011;8773;43.300;0.394;2023-11-18T15:07:37;2.80;;;2.58;;
17310;SDS011;8773;43.300;0.394;2023-11-18T15:10:05;3.33;;;3.03;;
17310;SDS011;8773;43.300;0.394;2023-11-18T15:12:33;2.90;;;2.70;;
17310;SDS011;8773;43.300;0.394;2023-11-18T15:15:00;3.08;;;2.88;;